Time;durP1;ratioP1;P1;durP2;ratioP2;P2;SDS_P1;SDS_P2;PMS_P1;PMS_P2;Temp;Humidity;BMP_temperature;BMP_pressure;BME280_temperature;BME280_humidity;BME280_pressure;Samples;Min_cycle;Max_cycle;Signal;HPM_P1;HPM_P2
2021/11/25 00:02:24;;;;;;;3.28;1.48;;;;;;;6.99;100.00;99942.38;5052202;28;20102;-57
2021/11/25 00:05:37;;;;;;;;;;;;;;;;;;;;;
2021/11/25 00:08:41;;;;;;;5.25;0.77;;;;;;;6.93;100.00;99944.94;5052661;28;20044;-57
2021/11/25 00:11:44;;;;;;;1.00;1.00;;;;;;;6.79;100.00;99948.22;5052522;28;20044;-58
2021/11/25 00:14:50;;;;;;;1.00;0.50;;;;;;;6.58;100.00;99962.78;5052515;28;20047;-57
2021/11/25 00:17:53;;;;;;;2.28;1.30;;;;;;;6.53;100.00;99955.81;5062848;28;20048;-57
2021/11/25 00:20:56;;;;;;;1.38;0.95;;;;;;;6.50;100.00;99955.91;5072479;28;20086;-57
2021/11/25 00:23:59;;;;;;;2.58;0.70;;;;;;;6.51;100.00;99963.00;5053349;28;20044;-57
2021/11/25 00:27:02;;;;;;;9.68;1.42;;;;;;;6.27;100.00;99953.50;5051026;28;20052;-57
2021/11/25 00:30:06;;;;;;;0.65;0.65;;;;;;;6.13;100.00;99957.50;5051935;28;20036;-57
2021/11/25 00:33:20;;;;;;;;;;;;;;;;;;;;;
2021/11/25 00:36:34;;;;;;;;;;;;;;;;;;;;;
2021/11/25 00:39:38;;;;;;;2.88;1.70;;;;;;;5.82;100.00;99954.50;5051155;28;20047;-57
2021/11/25 00:42:41;;;;;;;0.93;0.93;;;;;;;5.74;100.00;99966.19;5051019;28;20122;-57
2021/11/25 00:45:44;;;;;;;0.80;0.80;;;;;;;5.68;100.00;99941.09;5052256;28;20125;-59
2021/11/25 00:48:47;;;;;;;0.85;0.85;;;;;;;5.70;100.00;99933.13;5052197;28;20044;-57
2021/11/25 00:51:50;;;;;;;2.92;0.77;;;;;;;5.68;100.00;99941.09;5050980;28;20090;-57
2021/11/25 00:54:53;;;;;;;0.85;0.35;;;;;;;5.56;100.00;99936.31;5052283;28;20048;-57
2021/11/25 00:57:56;;;;;;;3.85;1.63;;;;;;;5.56;100.00;99930.81;5052227;28;20047;-57
2021/11/25 01:00:59;;;;;;;1.67;0.90;;;;;;;5.45;100.00;99935.06;5056109;28;20068;-57
2021/11/25 01:04:03;;;;;;;1.45;1.45;;;;;;;5.37;100.00;99945.56;5055883;28;20051;-57
2021/11/25 01:07:06;;;;;;;0.63;0.63;;;;;;;5.37;100.00;99942.81;5055763;28;20044;-57
2021/11/25 01:10:11;;;;;;;0.68;0.68;;;;;;;5.23;100.00;99948.72;5055805;28;20404;-57
2021/11/25 01:13:14;;;;;;;1.55;0.63;;;;;;;5.12;100.00;99942.72;5056037;28;20102;-57
2021/11/25 01:16:18;;;;;;;2.05;0.60;;;;;;;5.06;100.00;99949.97;5055920;28;20071;-56
2021/11/25 01:19:20;;;;;;;5.38;1.67;;;;;;;4.91;100.00;99954.34;5055428;28;20480;-57
2021/11/25 01:22:24;;;;;;;1.30;1.20;;;;;;;4.88;100.00;99955.97;5059999;28;20420;-57
2021/11/25 01:25:28;;;;;;;0.88;0.88;;;;;;;4.83;100.00;99955.75;5075098;28;20412;-57
2021/11/25 01:28:31;;;;;;;4.00;1.38;;;;;;;4.75;100.00;99962.63;5075170;28;20044;-57
2021/11/25 01:31:34;;;;;;;3.20;1.77;;;;;;;4.59;100.00;99953.16;5075295;28;20114;-57
2021/11/25 01:34:37;;;;;;;0.35;0.35;;;;;;;4.58;100.00;99953.59;5075324;28;20055;-57
2021/11/25 01:37:40;;;;;;;3.38;1.02;;;;;;;4.73;100.00;99959.53;5075616;28;20125;-57
2021/11/25 01:40:44;;;;;;;0.82;0.57;;;;;;;4.72;100.00;99958.75;5074921;28;20052;-57
2021/11/25 01:43:47;;;;;;;1.58;1.48;;;;;;;4.63;100.00;99973.16;5075608;28;20059;-57
2021/11/25 01:46:50;;;;;;;5.15;2.22;;;;;;;4.63;100.00;99981.44;5074853;28;20067;-56
2021/11/25 01:49:53;;;;;;;1.33;1.25;;;;;;;4.72;100.00;99974.53;5074918;28;20541;-57
2021/11/25 01:52:57;;;;;;;18.83;1.95;;;;;;;4.54;100.00;99978.53;5074877;28;20055;-56
2021/11/25 01:56:00;;;;;;;0.82;0.82;;;;;;;4.52;100.00;99978.19;5074714;28;20063;-57
2021/11/25 01:59:04;;;;;;;6.03;1.67;;;;;;;4.36;100.00;99983.69;5074631;28;20070;-56
2021/11/25 02:02:08;;;;;;;2.42;2.22;;;;;;;4.60;100.00;99992.56;5075168;28;20180;-57
2021/11/25 02:05:11;;;;;;;2.58;1.27;;;;;;;4.63;100.00;99979.88;5074259;28;20059;-56
2021/11/25 02:08:15;;;;;;;0.68;0.68;;;;;;;4.54;100.00;99980.50;5075003;28;20435;-57
2021/11/25 02:11:18;;;;;;;0.85;0.85;;;;;;;4.51;100.00;99971.09;5073681;28;20506;-57
2021/11/25 02:14:21;;;;;;;0.57;0.57;;;;;;;4.53;100.00;99968.69;5074812;28;20046;-56
2021/11/25 02:17:24;;;;;;;1.08;1.08;;;;;;;4.45;100.00;99972.06;5074301;28;20059;-57
2021/11/25 02:20:35;;;;;;;2.53;1.30;;;;;;;4.31;100.00;99973.16;5074410;28;20392;-56
2021/11/25 02:23:38;;;;;;;0.85;0.85;;;;;;;4.21;100.00;99970.66;5059426;28;20047;-57
2021/11/25 02:26:41;;;;;;;2.95;2.35;;;;;;;4.17;100.00;99970.75;5054463;28;20071;-57
2021/11/25 02:29:44;;;;;;;20.92;4.03;;;;;;;4.21;100.00;99965.94;5053712;28;20045;-56
2021/11/25 02:32:47;;;;;;;2.50;1.95;;;;;;;4.19;100.00;99960.06;5054338;28;20044;-56
2021/11/25 02:35:50;;;;;;;3.42;2.40;;;;;;;4.13;100.00;99967.31;5054335;28;20411;-56
2021/11/25 02:38:53;;;;;;;3.95;2.65;;;;;;;4.11;100.00;99966.97;5054244;28;20090;-57
2021/11/25 02:41:56;;;;;;;1.35;1.30;;;;;;;4.17;100.00;99973.50;5054004;28;20052;-57
2021/11/25 02:44:59;;;;;;;1.67;1.38;;;;;;;4.22;100.00;99967.47;5053953;28;20090;-56
2021/11/25 02:48:02;;;;;;;0.80;0.80;;;;;;;4.23;100.00;99969.03;5054039;28;20098;-56
2021/11/25 02:51:05;;;;;;;1.45;1.30;;;;;;;4.27;100.00;99969.72;5053868;28;20563;-56
2021/11/25 02:54:08;;;;;;;4.88;1.77;;;;;;;4.21;100.00;99973.41;5053866;28;20070;-56
2021/11/25 02:57:11;;;;;;;1.30;1.30;;;;;;;4.21;100.00;99984.44;5053695;28;20051;-57
2021/11/25 03:00:20;;;;;;;3.72;1.88;;;;;;;4.19;100.00;99982.13;5053153;28;20044;-57
2021/11/25 03:03:23;;;;;;;1.95;1.60;;;;;;;4.13;100.00;99978.34;5053707;28;20086;-56
2021/11/25 03:06:27;;;;;;;1.30;1.30;;;;;;;4.07;100.00;99969.00;5053617;28;20055;-57
2021/11/25 03:09:30;;;;;;;6.95;1.42;;;;;;;3.97;100.00;99985.78;5053697;28;20060;-57
2021/11/25 03:12:33;;;;;;;1.40;1.23;;;;;;;3.98;100.00;99971.59;5053492;28;20047;-57
2021/11/25 03:15:38;;;;;;;2.60;0.82;;;;;;;4.00;100.00;99976.66;5053539;28;20078;-56
2021/11/25 03:18:41;;;;;;;0.80;0.80;;;;;;;3.95;100.00;99977.16;5053338;28;20179;-57
2021/11/25 03:21:44;;;;;;;6.47;2.15;;;;;;;3.85;100.00;99990.00;5053079;28;20452;-57
2021/11/25 03:24:46;;;;;;;1.38;1.35;;;;;;;3.90;100.00;99997.72;5053356;28;20154;-56
2021/11/25 03:27:50;;;;;;;0.82;0.82;;;;;;;3.94;100.00;99995.69;5053001;28;20536;-57
2021/11/25 03:30:55;;;;;;;1.17;1.08;;;;;;;3.93;100.00;99996.88;5053417;28;20591;-56
2021/11/25 03:33:59;;;;;;;3.05;2.50;;;;;;;3.93;100.00;99996.88;5052672;28;20107;-57
2021/11/25 03:37:03;;;;;;;1.42;1.10;;;;;;;3.95;100.00;100004.72;5053111;28;20052;-57
2021/11/25 03:40:08;;;;;;;1.20;1.20;;;;;;;3.94;100.00;100003.19;5052520;28;20051;-57
2021/11/25 03:43:11;;;;;;;3.88;1.13;;;;;;;3.94;100.00;99998.44;5053142;28;20063;-57
2021/11/25 03:46:13;;;;;;;2.13;1.08;;;;;;;3.91;100.00;100001.25;5053233;28;20044;-57
2021/11/25 03:49:16;;;;;;;1.83;1.73;;;;;;;3.95;100.00;100004.72;5053333;28;20090;-56
2021/11/25 03:52:20;;;;;;;0.93;0.93;;;;;;;3.94;100.00;100003.97;5063520;28;20044;-57
2021/11/25 03:55:23;;;;;;;1.10;1.00;;;;;;;3.92;100.00;99998.06;5053085;28;20048;-56
2021/11/25 03:58:26;;;;;;;1.45;1.35;;;;;;;3.91;100.00;100009.53;5052604;28;20110;-56
2021/11/25 04:01:29;;;;;;;4.72;1.92;;;;;;;3.83;100.00;100003.41;5052711;28;20098;-57
2021/11/25 04:04:32;;;;;;;1.40;0.93;;;;;;;3.77;100.00;100000.38;5052249;28;20043;-57
2021/11/25 04:07:34;;;;;;;2.97;1.35;;;;;;;3.69;100.00;100009.22;5052584;28;20071;-56
2021/11/25 04:10:38;;;;;;;0.43;0.43;;;;;;;3.64;100.00;100018.75;5052442;28;20036;-57
2021/11/25 04:13:41;;;;;;;1.38;1.23;;;;;;;3.63;100.00;100005.41;5052491;28;20048;-57
2021/11/25 04:16:44;;;;;;;0.98;0.98;;;;;;;3.55;100.00;100009.50;5052496;28;20040;-57
2021/11/25 04:19:47;;;;;;;2.90;1.10;;;;;;;3.58;100.00;100008.66;5052685;28;20048;-57
2021/11/25 04:22:50;;;;;;;1.77;1.20;;;;;;;3.60;100.00;99997.97;5060548;28;20564;-57
2021/11/25 04:25:53;;;;;;;5.20;1.38;;;;;;;3.58;100.00;100003.13;5072752;28;20044;-57
2021/11/25 04:28:56;;;;;;;3.50;1.45;;;;;;;3.56;100.00;99989.81;5072167;28;20056;-57
2021/11/25 04:35:28;;;;;;;4.30;1.85;;;;;;;3.52;100.00;99977.31;5076268;28;20052;-56
2021/11/25 04:38:31;;;;;;;1.65;1.00;;;;;;;3.50;100.00;99985.22;5076282;28;20051;-57
2021/11/25 04:41:35;;;;;;;2.00;1.42;;;;;;;3.45;100.00;99982.94;5076040;28;20090;-57
2021/11/25 04:44:38;;;;;;;2.95;1.15;;;;;;;3.51;100.00;99981.28;5076273;28;20436;-56
2021/11/25 04:47:41;;;;;;;3.95;2.63;;;;;;;3.54;100.00;99980.41;5075977;28;20122;-57
2021/11/25 04:50:44;;;;;;;0.73;0.73;;;;;;;3.60;100.00;99989.72;5075728;28;20048;-56
2021/11/25 04:53:47;;;;;;;0.98;0.98;;;;;;;3.60;100.00;99992.47;5075931;28;20102;-56
2021/11/25 04:56:51;;;;;;;5.78;1.20;;;;;;;3.52;100.00;99993.84;5076111;28;20067;-56
2021/11/25 04:59:53;;;;;;;1.00;1.00;;;;;;;3.56;100.00;100000.03;5075807;28;20044;-56
2021/11/25 05:02:57;;;;;;;1.08;1.08;;;;;;;3.58;100.00;100009.44;5075919;28;20087;-57
2021/11/25 05:05:59;;;;;;;1.38;1.10;;;;;;;3.59;100.00;100018.47;5075452;28;20052;-57
2021/11/25 05:09:04;;;;;;;5.20;2.33;;;;;;;3.57;100.00;100023.63;5075628;28;20448;-56
2021/11/25 05:12:07;;;;;;;1.95;1.48;;;;;;;3.54;100.00;100021.72;5075637;28;20111;-57
2021/11/25 05:15:12;;;;;;;2.35;1.73;;;;;;;3.54;100.00;100027.22;5075471;28;20536;-57
2021/11/25 05:18:16;;;;;;;2.92;1.45;;;;;;;3.49;100.00;100038.72;5075249;28;20547;-57
2021/11/25 05:21:19;;;;;;;1.08;0.85;;;;;;;3.48;100.00;100053.69;5075382;28;20051;-57
2021/11/25 05:24:22;;;;;;;0.90;0.70;;;;;;;3.42;100.00;100044.38;5054778;28;20051;-56
2021/11/25 05:27:25;;;;;;;0.60;0.60;;;;;;;3.41;100.00;100053.81;5055385;28;20055;-56
2021/11/25 05:30:31;;;;;;;1.73;1.35;;;;;;;3.42;100.00;100058.13;5055301;28;20071;-57
2021/11/25 05:33:34;;;;;;;0.93;0.55;;;;;;;3.41;100.00;100056.56;5055142;28;20436;-57
2021/11/25 05:36:37;;;;;;;0.77;0.70;;;;;;;3.35;100.00;100061.03;5055077;28;20052;-56
2021/11/25 05:39:40;;;;;;;2.83;1.58;;;;;;;3.30;100.00;100053.25;5054738;28;20083;-57
2021/11/25 05:42:44;;;;;;;0.52;0.52;;;;;;;3.23;100.00;100054.16;5054770;28;20129;-56
2021/11/25 05:45:47;;;;;;;1.02;1.02;;;;;;;3.20;100.00;100055.00;5054982;28;20087;-57
2021/11/25 05:48:50;;;;;;;1.40;0.77;;;;;;;3.19;100.00;100069.16;5054757;28;20067;-57
2021/11/25 05:51:53;;;;;;;1.17;0.70;;;;;;;3.16;100.00;100065.31;5054919;28;20047;-57
2021/11/25 05:54:57;;;;;;;1.42;1.33;;;;;;;3.20;100.00;100056.97;5054831;28;20409;-57
2021/11/25 05:58:00;;;;;;;1.42;1.42;;;;;;;3.19;100.00;100049.91;5054660;28;20048;-56
2021/11/25 06:01:03;;;;;;;0.93;0.93;;;;;;;3.17;100.00;100066.06;5054791;28;20534;-57
2021/11/25 06:04:06;;;;;;;0.75;0.75;;;;;;;3.12;100.00;100058.31;5054852;28;20504;-57
2021/11/25 06:07:09;;;;;;;1.48;1.35;;;;;;;3.08;100.00;100061.09;5054676;28;20083;-57
2021/11/25 06:10:15;;;;;;;0.93;0.93;;;;;;;3.03;100.00;100056.09;5054688;28;20083;-57
2021/11/25 06:13:18;;;;;;;5.00;1.83;;;;;;;3.00;100.00;100054.97;5054476;28;20048;-56
2021/11/25 06:16:21;;;;;;;2.58;1.73;;;;;;;2.97;100.00;100053.03;5055036;28;20095;-57
2021/11/25 06:19:25;;;;;;;1.63;1.52;;;;;;;3.00;100.00;100060.47;5054740;28;20044;-56
2021/11/25 06:22:28;;;;;;;4.93;1.45;;;;;;;3.00;100.00;100067.94;5059593;28;20051;-56
2021/11/25 06:25:30;;;;;;;0.85;0.85;;;;;;;2.93;100.00;100068.81;5074369;28;20062;-57
2021/11/25 06:28:33;;;;;;;0.73;0.73;;;;;;;2.87;100.00;100081.50;5074749;28;20047;-57
2021/11/25 06:31:37;;;;;;;0.43;0.43;;;;;;;2.86;100.00;100084.66;5053886;28;20063;-57
2021/11/25 06:34:40;;;;;;;3.00;1.33;;;;;;;2.84;100.00;100076.84;5053815;28;20555;-57
2021/11/25 06:37:46;;;;;;;1.17;1.17;;;;;;;2.87;100.00;100081.50;5054809;28;20086;-56
2021/11/25 06:40:49;;;;;;;1.23;1.17;;;;;;;2.85;100.00;100078.41;5053654;28;20094;-56
2021/11/25 06:43:52;;;;;;;1.45;1.30;;;;;;;2.79;100.00;100080.06;5055037;28;20048;-53
2021/11/25 06:46:54;;;;;;;0.70;0.68;;;;;;;2.77;100.00;100082.44;5053354;28;20441;-53
2021/11/25 06:49:57;;;;;;;7.03;1.00;;;;;;;2.70;100.00;100082.56;5052832;28;20436;-57
2021/11/25 06:53:00;;;;;;;1.33;1.17;;;;;;;2.67;100.00;100094.38;5054503;28;20063;-57
2021/11/25 06:56:04;;;;;;;0.75;0.75;;;;;;;2.72;100.00;100093.94;5053487;28;20051;-57
2021/11/25 06:59:06;;;;;;;1.55;1.45;;;;;;;2.73;100.00;100103.72;5054062;28;20188;-53
2021/11/25 07:02:09;;;;;;;2.03;1.67;;;;;;;2.74;100.00;100110.00;5053895;28;20051;-53
2021/11/25 07:05:13;;;;;;;4.13;1.73;;;;;;;2.68;100.00;100106.19;5053764;28;20052;-57
2021/11/25 07:08:16;;;;;;;3.92;2.47;;;;;;;2.68;100.00;100122.66;5052571;28;20056;-57
2021/11/25 07:11:18;;;;;;;1.48;1.38;;;;;;;2.65;100.00;100127.03;5052654;28;20039;-57
2021/11/25 07:14:21;;;;;;;5.47;1.25;;;;;;;2.67;100.00;100132.88;5054037;28;20094;-54
2021/11/25 07:17:24;;;;;;;0.40;0.40;;;;;;;2.56;100.00;100136.97;5053623;28;20098;-53
2021/11/25 07:20:27;;;;;;;1.20;1.20;;;;;;;2.50;100.00;100147.66;5053000;28;20044;-53
2021/11/25 07:23:30;;;;;;;1.13;1.13;;;;;;;2.47;100.00;100159.47;5061796;28;20056;-54
2021/11/25 07:26:33;;;;;;;2.65;1.85;;;;;;;2.47;100.00;100162.22;5053427;28;20052;-53
2021/11/25 07:29:37;;;;;;;9.90;2.70;;;;;;;2.48;100.00;100163.78;5052973;28;20106;-57
2021/11/25 07:32:40;;;;;;;1.17;1.17;;;;;;;2.51;100.00;100165.72;5052788;28;20044;-57
2021/11/25 07:35:46;;;;;;;1.30;1.30;;;;;;;2.52;100.00;100170.00;5053271;28;20520;-57
2021/11/25 07:38:49;;;;;;;6.65;2.97;;;;;;;2.54;100.00;100166.84;5051683;28;20067;-58
2021/11/25 07:41:52;;;;;;;4.07;3.20;;;;;;;2.57;100.00;100163.28;5052546;28;20136;-53
2021/11/25 07:44:55;;;;;;;0.73;0.73;;;;;;;2.54;100.00;100159.38;5053693;28;20179;-57
2021/11/25 07:47:58;;;;;;;2.83;2.13;;;;;;;2.51;100.00;100157.47;5052619;28;20047;-57
2021/11/25 07:51:01;;;;;;;7.72;2.20;;;;;;;2.60;100.00;100149.47;5053160;28;20054;-57
2021/11/25 07:54:08;;;;;;;1.45;1.42;;;;;;;2.59;100.00;100149.91;5052731;28;20048;-54
2021/11/25 07:57:11;;;;;;;5.65;2.75;;;;;;;2.56;100.00;100148.75;5053062;28;20044;-54
2021/11/25 08:00:16;;;;;;;6.05;3.22;;;;;;;2.60;100.00;100149.47;5066839;28;20047;-53
2021/11/25 08:03:19;;;;;;;2.42;1.67;;;;;;;2.59;100.00;100141.66;5072839;28;20052;-54
2021/11/25 08:06:22;;;;;;;2.35;1.60;;;;;;;2.65;100.00;100150.97;5072971;28;20048;-53
2021/11/25 08:09:25;;;;;;;1.25;1.15;;;;;;;2.61;100.00;100162.03;5071944;28;20082;-54
2021/11/25 08:12:28;;;;;;;10.38;1.55;;;;;;;2.54;100.00;100164.88;5073020;28;20047;-54
2021/11/25 08:15:32;;;;;;;21.15;4.88;;;;;;;2.55;100.00;100168.41;5072662;28;20119;-54
2021/11/25 08:18:35;;;;;;;1.95;1.85;;;;;;;2.58;100.00;100173.84;5071794;28;20058;-57
2021/11/25 08:21:38;;;;;;;1.55;1.42;;;;;;;2.68;100.00;100167.44;5072504;28;20040;-57
2021/11/25 08:24:42;;;;;;;1.45;1.35;;;;;;;2.70;100.00;100178.03;5052351;28;20048;-54
2021/11/25 08:27:46;;;;;;;1.73;1.63;;;;;;;2.71;100.00;100183.09;5053234;28;20048;-54
2021/11/25 08:30:49;;;;;;;3.95;1.42;;;;;;;2.68;100.00;100186.69;5052545;28;20052;-54
2021/11/25 08:33:52;;;;;;;1.48;1.48;;;;;;;2.69;100.00;100173.69;5052935;28;20107;-54
2021/11/25 08:36:55;;;;;;;2.05;1.20;;;;;;;2.72;100.00;100179.16;5052846;28;20135;-54
2021/11/25 08:39:58;;;;;;;1.88;1.77;;;;;;;2.79;100.00;100184.56;5053603;28;20091;-55
2021/11/25 08:43:01;;;;;;;6.97;1.70;;;;;;;2.77;100.00;100195.19;5052438;28;20397;-54
2021/11/25 08:46:04;;;;;;;1.45;1.35;;;;;;;2.80;100.00;100188.88;5051877;28;20520;-54
2021/11/25 08:49:07;;;;;;;2.88;1.67;;;;;;;2.88;100.00;100182.06;5052626;28;20106;-54
2021/11/25 08:52:10;;;;;;;1.92;1.80;;;;;;;2.91;100.00;100181.25;5052662;28;20052;-57
2021/11/25 08:55:13;;;;;;;3.50;3.03;;;;;;;2.90;100.00;100179.66;5052240;28;20099;-54
2021/11/25 08:58:16;;;;;;;2.47;1.10;;;;;;;2.91;100.00;100175.75;5051111;28;20044;-54
2021/11/25 09:01:20;;;;;;;6.00;3.10;;;;;;;3.00;100.00;100189.75;5051667;28;20048;-57
2021/11/25 09:04:23;;;;;;;5.70;2.88;;;;;;;3.10;100.00;100185.25;5064934;28;20047;-54
2021/11/25 09:07:26;;;;;;;2.00;1.83;;;;;;;3.11;100.00;100188.81;5050324;28;20389;-57
2021/11/25 09:10:30;;;;;;;2.40;2.22;;;;;;;3.18;100.00;100172.19;5049488;28;20086;-57
2021/11/25 09:13:33;;;;;;;14.23;2.95;;;;;;;3.17;100.00;100176.13;5050681;28;20071;-57
2021/11/25 09:16:36;;;;;;;2.00;1.90;;;;;;;3.11;100.00;100178.59;5050482;28;20048;-54
2021/11/25 09:19:39;;;;;;;3.53;2.53;;;;;;;3.14;100.00;100171.47;5052294;28;20043;-54
2021/11/25 09:22:42;;;;;;;2.15;2.05;;;;;;;3.16;100.00;100174.59;5070911;28;20078;-54
2021/11/25 09:25:45;;;;;;;1.83;1.73;;;;;;;3.18;100.00;100172.97;5075326;28;20553;-54
2021/11/25 09:28:48;;;;;;;1.70;1.60;;;;;;;3.28;100.00;100182.22;5075705;28;20055;-57
2021/11/25 09:31:51;;;;;;;0.98;0.98;;;;;;;3.39;100.00;100182.84;5075419;28;20056;-58
2021/11/25 09:34:54;;;;;;;4.95;2.85;;;;;;;3.45;100.00;100170.94;5074983;28;20055;-54
2021/11/25 09:37:58;;;;;;;0.90;0.90;;;;;;;3.49;100.00;100177.16;5075516;28;20101;-57
2021/11/25 09:41:01;;;;;;;0.70;0.70;;;;;;;3.55;100.00;100188.47;5074780;28;20409;-57
2021/11/25 09:44:06;;;;;;;0.70;0.70;;;;;;;3.60;100.00;100199.00;5075989;28;20446;-58
2021/11/25 09:47:11;;;;;;;5.68;1.15;;;;;;;3.60;100.00;100201.75;5075056;28;20101;-57
2021/11/25 09:50:14;;;;;;;1.05;1.05;;;;;;;3.72;100.00;100201.94;5075925;28;20504;-57
2021/11/25 09:53:21;;;;;;;0.50;0.50;;;;;;;3.81;100.00;100204.13;5074662;28;20498;-57
2021/11/25 09:56:25;;;;;;;0.50;0.50;;;;;;;3.92;100.00;100214.97;5075191;28;20492;-54
2021/11/25 09:59:28;;;;;;;1.38;1.13;;;;;;;3.93;100.00;100224.75;5074890;28;20078;-54
2021/11/25 10:02:31;;;;;;;0.90;0.52;;;;;;;3.95;100.00;100217.63;5075219;28;20435;-54
2021/11/25 10:05:33;;;;;;;0.43;0.40;;;;;;;4.24;100.00;100221.44;5075114;28;20047;-54
2021/11/25 10:08:48;;;;;;;1.15;1.10;;;;;;;4.21;100.00;100221.47;5073429;28;20132;-54
2021/11/25 10:11:51;;;;;;;17.27;0.98;;;;;;;4.19;100.00;100219.16;5074652;28;20044;-54
2021/11/25 10:14:54;;;;;;;0.85;0.75;;;;;;;4.17;100.00;100205.03;5075320;28;20036;-54
2021/11/25 10:18:00;;;;;;;0.50;0.50;;;;;;;4.19;100.00;100216.41;5074311;28;20054;-54
2021/11/25 10:21:08;;;;;;;6.60;0.90;;;;;;;4.23;100.00;100208.84;5074706;28;20048;-57
2021/11/25 10:24:11;;;;;;;0.65;0.65;;;;;;;4.31;100.00;100221.25;5066934;28;20143;-55
2021/11/25 10:27:25;;;;;;;0.85;0.85;;;;;;;4.37;100.00;100238.88;5073889;28;20090;-54
2021/11/25 10:30:36;;;;;;;0.70;0.68;;;;;;;4.41;100.00;100236.84;5060055;28;20539;-54
2021/11/25 10:33:51;;;;;;;0.60;0.60;;;;;;;4.51;100.00;100227.56;5072970;28;20035;-54
2021/11/25 10:40:25;;;;;;;5.78;0.80;;;;;;;4.77;100.00;100258.16;5073882;28;20131;-54
2021/11/25 10:43:29;;;;;;;3.92;1.08;;;;;;;4.90;100.00;100251.56;5073579;28;20051;-55
2021/11/25 10:46:56;;;;;;;0.60;0.57;;;;;;;4.97;100.00;100236.81;5073443;28;20055;-54
2021/11/25 10:50:03;;;;;;;0.43;0.43;;;;;;;5.00;100.00;100235.97;5073216;28;20048;-54
2021/11/25 10:53:09;;;;;;;0.63;0.63;;;;;;;5.05;100.00;100240.97;5073329;28;20060;-54
2021/11/25 10:56:13;;;;;;;12.50;1.60;;;;;;;5.16;100.00;100236.00;5073475;28;20396;-54
2021/11/25 10:59:19;;;;;;;0.70;0.70;;;;;;;5.16;100.00;100227.72;5072747;28;20106;-54
2021/11/25 11:02:28;;;;;;;3.35;0.52;;;;;;;5.25;100.00;100233.41;5073778;28;20530;-54
2021/11/25 11:05:43;;;;;;;0.10;0.10;;;;;;;5.25;100.00;100212.13;5072697;28;20075;-54
2021/11/25 11:08:46;;;;;;;1.50;0.77;;;;;;;5.25;100.00;100211.34;5073578;28;20059;-57
2021/11/25 11:11:49;;;;;;;0.73;0.52;;;;;;;5.37;100.00;100213.44;5073656;28;20098;-58
2021/11/25 11:14:56;;;;;;;1.17;1.08;;;;;;;5.44;100.00;100207.72;5059268;28;20108;-58
2021/11/25 11:21:05;;;;;;;1.65;0.55;;;;;;;5.58;100.00;100201.06;5052284;28;20091;-54
2021/11/25 11:24:13;;;;;;;0.30;0.30;;;;;;;5.66;100.00;100181.09;5067419;28;20109;-54
2021/11/25 11:27:16;;;;;;;0.47;0.47;;;;;;;5.72;100.00;100195.94;5049289;28;20087;-54
2021/11/25 11:30:22;;;;;;;0.77;0.63;;;;;;;5.79;100.00;100195.75;5045735;28;20495;-54
2021/11/25 11:33:25;;;;;;;6.07;1.35;;;;;;;5.80;100.00;100202.84;5072951;28;20090;-58
2021/11/25 11:36:30;;;;;;;0.73;0.50;;;;;;;5.82;100.00;100205.97;5044966;28;20260;-53
2021/11/25 11:39:34;;;;;;;1.90;0.13;;;;;;;5.84;100.00;100200.81;5039909;28;20582;-53
2021/11/25 11:42:38;;;;;;;1.20;0.45;;;;;;;6.05;100.00;100208.53;5040623;28;20287;-53
2021/11/25 11:45:42;;;;;;;0.45;0.45;;;;;;;6.24;100.00;100203.28;5042023;28;20043;-53
2021/11/25 11:48:45;;;;;;;0.30;0.30;;;;;;;6.41;100.00;100218.59;5041834;28;20748;-58
2021/11/25 11:52:06;;;;;;;0.22;0.22;;;;;;;6.51;100.00;100212.00;5041745;28;20079;-58
2021/11/25 11:55:09;;;;;;;0.43;0.40;;;;;;;6.53;100.00;100215.09;5041479;28;20051;-58
2021/11/25 11:58:36;;;;;;;1.05;0.60;;;;;;;6.57;100.00;100216.53;5041824;28;20507;-53
2021/11/25 12:01:40;;;;;;;4.35;1.40;;;;;;;6.61;100.00;100205.34;5041039;28;20121;-53
2021/11/25 12:04:44;;;;;;;2.83;0.80;;;;;;;6.62;100.00;100204.94;5041140;28;20113;-52
2021/11/25 12:07:47;;;;;;;0.82;0.60;;;;;;;6.73;100.00;100215.69;5040921;28;20036;-53
2021/11/25 12:11:04;;;;;;;4.00;0.63;;;;;;;6.80;100.00;100229.28;5038819;28;20578;-58
2021/11/25 12:14:13;;;;;;;0.55;0.55;;;;;;;6.94;100.00;100228.88;5041609;28;20101;-53
2021/11/25 12:17:33;;;;;;;2.05;0.57;;;;;;;7.12;100.00;100212.50;5030271;28;20126;-53
2021/11/25 12:20:40;;;;;;;0.22;0.17;;;;;;;7.27;100.00;100210.06;5043912;28;20040;-53
2021/11/25 12:23:45;;;;;;;1.48;0.38;;;;;;;7.44;100.00;100198.41;5042821;28;20070;-53
2021/11/25 12:27:17;;;;;;;0.47;0.30;;;;;;;7.48;100.00;100190.75;5038527;28;20090;-57
2021/11/25 12:30:26;;;;;;;0.75;0.73;;;;;;;7.46;100.00;100193.19;5039627;28;20353;-57
2021/11/25 12:33:37;;;;;;;0.25;0.25;;;;;;;7.57;100.00;100190.84;5030793;28;20413;-53
2021/11/25 12:36:41;;;;;;;0.20;0.20;;;;;;;7.61;100.00;100179.63;5046420;28;20031;-57
2021/11/25 12:39:43;;;;;;;0.38;0.38;;;;;;;7.60;100.00;100165.00;5047833;28;20296;-57
2021/11/25 12:42:53;;;;;;;1.77;0.85;;;;;;;7.69;100.00;100166.31;5055028;28;20128;-59
2021/11/25 12:46:06;;;;;;;0.73;0.63;;;;;;;7.74;100.00;100151.88;5071302;28;20071;-58
2021/11/25 12:49:16;;;;;;;0.30;0.30;;;;;;;7.72;100.00;100148.78;5071449;28;20165;-57
2021/11/25 12:52:30;;;;;;;0.77;0.77;;;;;;;7.68;100.00;100153.66;5072457;28;20044;-53
2021/11/25 12:55:33;;;;;;;0.10;0.10;;;;;;;7.59;100.00;100152.38;5074391;28;20107;-53
2021/11/25 12:58:39;;;;;;;0.38;0.38;;;;;;;7.59;100.00;100135.75;5075688;28;20400;-58
2021/11/25 13:01:46;;;;;;;8.27;0.80;;;;;;;7.71;100.00;100125.06;5076233;28;20119;-52
2021/11/25 13:04:48;;;;;;;0.50;0.50;;;;;;;7.76;100.00;100132.78;5074600;28;20518;-52
2021/11/25 13:07:52;;;;;;;0.20;0.20;;;;;;;7.77;100.00;100134.34;5076057;28;20047;-52
2021/11/25 13:10:55;;;;;;;0.75;0.75;;;;;;;7.74;100.00;100126.91;5074481;28;20100;-53
2021/11/25 13:14:14;;;;;;;2.83;0.82;;;;;;;7.77;100.00;100112.16;5059672;28;20807;-58
2021/11/25 13:17:19;;;;;;;0.20;0.20;;;;;;;7.80;100.00;100122.34;5047312;28;20052;-59
2021/11/25 13:20:45;;;;;;;0.22;0.22;;;;;;;7.76;100.00;100121.69;5051736;28;20051;-53
2021/11/25 13:24:11;;;;;;;1.13;0.57;;;;;;;7.80;100.00;100123.13;5053564;28;20515;-54
2021/11/25 13:27:36;;;;;;;1.33;1.23;;;;;;;7.88;100.00;100107.03;5023566;28;20678;-59
2021/11/25 13:30:39;;;;;;;1.30;0.98;;;;;;;7.84;100.00;100107.13;5036015;28;20028;-54
2021/11/25 13:33:54;;;;;;;0.65;0.65;;;;;;;7.74;100.00;100096.44;5036768;28;20574;-54
2021/11/25 13:36:58;;;;;;;0.35;0.35;;;;;;;7.79;100.00;100104.97;5040541;28;20558;-54
2021/11/25 13:40:07;;;;;;;0.40;0.40;;;;;;;7.81;100.00;100096.19;5040930;28;20328;-54
2021/11/25 13:43:10;;;;;;;0.30;0.30;;;;;;;7.86;100.00;100103.94;5042162;28;20117;-54
2021/11/25 13:46:13;;;;;;;0.20;0.20;;;;;;;7.91;100.00;100106.09;5040954;28;20026;-60
2021/11/25 13:49:18;;;;;;;0.20;0.20;;;;;;;7.97;100.00;100107.09;5037674;28;20369;-60
2021/11/25 13:52:29;;;;;;;0.10;0.10;;;;;;;7.95;100.00;100117.88;5035091;28;20043;-58
2021/11/25 13:55:35;;;;;;;0.40;0.40;;;;;;;8.00;100.00;100104.19;5034184;28;20086;-55
2021/11/25 13:58:38;;;;;;;0.30;0.30;;;;;;;7.98;100.00;100094.75;5032017;28;20469;-54
2021/11/25 14:01:45;;;;;;;0.20;0.15;;;;;;;7.88;100.00;100102.25;5020829;28;20281;-59
2021/11/25 14:04:56;;;;;;;14.35;1.27;;;;;;;7.80;100.00;100100.16;5073459;28;20162;-60
2021/11/25 14:08:06;;;;;;;0.30;0.20;;;;;;;7.84;100.00;100100.84;5061194;28;20460;-60
2021/11/25 14:11:14;;;;;;;0.57;0.17;;;;;;;7.84;100.00;100114.69;5073483;28;20075;-54
2021/11/25 14:14:17;;;;;;;0.30;0.20;;;;;;;7.85;100.00;100096.81;5074053;28;20133;-54
2021/11/25 14:17:23;;;;;;;5.00;0.63;;;;;;;7.88;100.00;100084.84;5073756;28;20090;-54
2021/11/25 14:20:29;;;;;;;0.30;0.20;;;;;;;7.79;100.00;100076.47;5073155;28;20546;-54
2021/11/25 14:23:32;;;;;;;0.28;0.28;;;;;;;7.88;100.00;100082.06;5073923;28;20487;-61
2021/11/25 14:27:03;;;;;;;0.45;0.30;;;;;;;7.80;100.00;100081.53;5073752;28;20043;-60
2021/11/25 14:30:14;;;;;;;0.52;0.52;;;;;;;7.81;100.00;100080.31;5073607;28;20039;-61
2021/11/25 14:33:18;;;;;;;0.40;0.40;;;;;;;7.87;100.00;100072.97;5074627;28;20074;-54
2021/11/25 14:36:26;;;;;;;0.30;0.30;;;;;;;7.82;100.00;100075.56;5073762;28;20066;-54
2021/11/25 14:39:29;;;;;;;0.90;0.43;;;;;;;7.68;100.00;100070.53;5073120;28;20436;-55